createdAt,value
2023-04-30T00:01:38.681Z,6.00
2023-04-30T00:03:41.368Z,6.00
2023-04-30T00:05:44.909Z,6.00
2023-04-30T00:07:47.497Z,5.90
2023-04-30T00:09:51.831Z,5.90
2023-04-30T00:11:54.054Z,5.90
2023-04-30T00:13:57.354Z,5.80
2023-04-30T00:15:59.773Z,5.80
2023-04-30T00:18:07.241Z,5.70
2023-04-30T00:20:10.879Z,5.70
2023-04-30T00:22:13.309Z,5.70
2023-04-30T00:24:15.797Z,5.70
2023-04-30T00:26:18.356Z,5.60
2023-04-30T00:28:24.190Z,5.60
2023-04-30T00:30:26.739Z,5.50
2023-04-30T00:32:29.337Z,5.50
2023-04-30T00:34:34.605Z,5.50
2023-04-30T00:36:37.136Z,5.50
2023-04-30T00:38:40.372Z,5.40
2023-04-30T00:40:43.872Z,5.40
2023-04-30T00:42:46.284Z,5.50
2023-04-30T00:44:51.636Z,5.40
2023-04-30T00:46:57.071Z,6.30
2023-04-30T00:49:02.418Z,6.10
2023-04-30T00:51:07.849Z,5.60
2023-04-30T00:53:10.754Z,5.40
2023-04-30T00:55:13.955Z,5.30
2023-04-30T00:57:16.691Z,5.30
2023-04-30T00:59:19.259Z,5.30
2023-04-30T01:01:25.169Z,5.30
2023-04-30T01:03:29.362Z,5.30
2023-04-30T01:05:31.836Z,5.30
2023-04-30T01:07:41.644Z,6.20
2023-04-30T01:09:44.273Z,5.30
2023-04-30T01:12:02.026Z,5.30
2023-04-30T01:14:10.035Z,5.20
2023-04-30T01:16:19.377Z,5.30
2023-04-30T01:18:28.459Z,5.20
2023-04-30T01:20:32.505Z,5.20
2023-04-30T01:22:48.184Z,5.20
2023-04-30T01:25:07.559Z,5.20
2023-04-30T01:27:30.279Z,5.20
2023-04-30T01:29:38.673Z,5.20
2023-04-30T01:31:44.108Z,5.10
2023-04-30T01:33:46.973Z,5.50
2023-04-30T01:36:15.038Z,5.10
2023-04-30T01:38:28.237Z,5.50
2023-04-30T01:40:41.135Z,5.00
2023-04-30T01:42:53.138Z,5.00
2023-04-30T01:45:13.164Z,5.80
2023-04-30T01:47:24.703Z,5.00
2023-04-30T01:49:32.797Z,5.00
2023-04-30T01:51:41.123Z,5.20
2023-04-30T01:53:46.802Z,5.00
2023-04-30T01:55:55.265Z,5.00
2023-04-30T01:57:59.888Z,5.00
2023-04-30T02:00:11.782Z,5.00
2023-04-30T02:02:17.361Z,5.00
2023-04-30T02:04:20.085Z,5.00
2023-04-30T02:06:22.965Z,5.00
2023-04-30T02:08:27.361Z,5.00
2023-04-30T02:10:30.802Z,5.00
2023-04-30T02:12:33.355Z,5.00
2023-04-30T02:14:36.037Z,5.00
2023-04-30T02:16:41.993Z,5.00
2023-04-30T02:18:45.792Z,5.10
2023-04-30T02:20:48.207Z,5.10
2023-04-30T02:22:51.037Z,5.10
2023-04-30T02:24:55.809Z,5.20
2023-04-30T02:26:58.270Z,5.10
2023-04-30T02:29:01.008Z,5.10
2023-04-30T02:31:03.591Z,5.00
2023-04-30T02:33:12.481Z,5.50
2023-04-30T02:35:14.995Z,5.40
2023-04-30T02:37:17.852Z,5.00
2023-04-30T02:39:20.276Z,5.00
2023-04-30T02:41:22.824Z,5.00
2023-04-30T02:43:25.263Z,5.00
2023-04-30T02:45:27.945Z,4.90
2023-04-30T02:47:31.705Z,4.90
2023-04-30T02:49:37.208Z,4.90
2023-04-30T02:51:39.618Z,5.00
2023-04-30T02:53:42.029Z,5.00
2023-04-30T02:55:44.594Z,5.00
2023-04-30T02:57:47.228Z,5.00
2023-04-30T02:59:49.880Z,5.00
2023-04-30T03:01:55.643Z,5.00
2023-04-30T03:03:59.617Z,5.00
2023-04-30T03:06:05.469Z,5.10
2023-04-30T03:08:07.965Z,5.10
2023-04-30T03:10:11.395Z,5.10
2023-04-30T03:12:14.925Z,5.20
2023-04-30T03:14:17.371Z,5.20
2023-04-30T03:16:20.973Z,5.30
2023-04-30T03:18:23.420Z,5.30
2023-04-30T03:20:25.991Z,5.30
2023-04-30T03:22:36.565Z,5.30
2023-04-30T03:24:38.965Z,5.30
2023-04-30T03:26:41.575Z,5.30
2023-04-30T03:28:43.990Z,5.30
2023-04-30T03:30:46.823Z,5.40
2023-04-30T03:32:49.356Z,5.80
2023-04-30T03:34:51.907Z,5.40
2023-04-30T03:36:54.440Z,5.30
2023-04-30T03:39:02.174Z,5.40
2023-04-30T03:41:04.913Z,5.30
2023-04-30T03:43:07.406Z,5.30
2023-04-30T03:45:10.933Z,5.30
2023-04-30T03:47:13.470Z,5.30
2023-04-30T03:49:16.584Z,5.30
2023-04-30T03:51:19.740Z,5.30
2023-04-30T03:53:22.375Z,5.20
2023-04-30T03:55:28.081Z,5.20
2023-04-30T03:57:31.234Z,5.20
2023-04-30T03:59:34.694Z,5.10
2023-04-30T04:01:37.262Z,5.10
2023-04-30T04:03:40.038Z,5.10
2023-04-30T04:05:42.815Z,5.10
2023-04-30T04:07:45.481Z,5.10
2023-04-30T04:09:48.448Z,5.10
2023-04-30T04:11:54.366Z,5.10
2023-04-30T04:13:56.761Z,4.50
2023-04-30T04:16:01.506Z,5.10
2023-04-30T04:18:04.770Z,5.10
2023-04-30T04:20:11.909Z,5.10
2023-04-30T04:22:16.125Z,5.10
2023-04-30T04:24:19.357Z,5.10
2023-04-30T04:26:25.769Z,5.10
2023-04-30T04:28:30.992Z,5.10
2023-04-30T04:30:34.098Z,5.10
2023-04-30T04:32:47.084Z,5.10
2023-04-30T04:34:50.140Z,5.10
2023-04-30T04:36:53.133Z,5.00
2023-04-30T04:39:02.160Z,5.00
2023-04-30T04:41:05.492Z,4.90
2023-04-30T04:43:08.383Z,4.90
2023-04-30T04:45:16.041Z,4.80
2023-04-30T04:47:22.049Z,4.90
2023-04-30T04:49:24.687Z,4.90
2023-04-30T04:51:28.096Z,4.90
2023-04-30T04:53:31.744Z,5.00
2023-04-30T04:55:35.022Z,5.00
2023-04-30T04:57:38.614Z,5.50
2023-04-30T04:59:41.035Z,5.10
2023-04-30T05:01:46.351Z,5.20
2023-04-30T05:03:49.698Z,5.20
2023-04-30T05:05:57.514Z,5.20
2023-04-30T05:08:00.227Z,5.60
2023-04-30T05:10:02.744Z,5.40
2023-04-30T05:12:07.202Z,5.40
2023-04-30T05:14:09.865Z,5.60
2023-04-30T05:16:12.493Z,5.60
2023-04-30T05:18:17.712Z,5.70
2023-04-30T05:20:21.315Z,5.70
2023-04-30T05:22:24.437Z,5.80
2023-04-30T05:24:29.166Z,5.90
2023-04-30T05:26:31.636Z,6.00
2023-04-30T05:28:34.263Z,6.00
2023-04-30T05:30:36.953Z,6.20
2023-04-30T05:32:39.541Z,6.20
2023-04-30T05:34:47.321Z,6.30
2023-04-30T05:36:49.976Z,6.30
2023-04-30T05:38:52.475Z,6.40
2023-04-30T05:40:54.994Z,6.50
2023-04-30T05:42:57.516Z,6.60
2023-04-30T05:45:00.125Z,6.70
2023-04-30T05:47:05.030Z,6.80
2023-04-30T05:49:10.848Z,7.00
2023-04-30T05:51:16.300Z,7.10
2023-04-30T05:53:18.862Z,7.20
2023-04-30T05:55:21.542Z,7.30
2023-04-30T05:57:24.155Z,7.40
2023-04-30T05:59:27.584Z,7.40
2023-04-30T06:01:30.206Z,7.50
2023-04-30T06:03:32.844Z,7.60
2023-04-30T06:05:35.425Z,7.60
2023-04-30T06:07:40.660Z,7.70
2023-04-30T06:09:43.202Z,7.80
2023-04-30T06:11:50.494Z,7.90
2023-04-30T06:13:54.113Z,8.10
2023-04-30T06:15:59.338Z,8.20
2023-04-30T06:18:02.260Z,8.40
2023-04-30T06:20:08.278Z,8.50
2023-04-30T06:22:11.085Z,9.50
2023-04-30T06:24:16.268Z,8.50
2023-04-30T06:26:19.697Z,8.80
2023-04-30T06:28:22.192Z,9.00
2023-04-30T06:30:24.832Z,9.20
2023-04-30T06:32:27.396Z,10.00
2023-04-30T06:34:30.077Z,9.50
2023-04-30T06:36:32.629Z,9.60
2023-04-30T06:38:35.182Z,9.60
2023-04-30T06:40:40.738Z,9.60
2023-04-30T06:42:44.460Z,9.50
2023-04-30T06:44:48.701Z,9.40
2023-04-30T06:46:51.301Z,9.40
2023-04-30T06:48:54.539Z,9.40
2023-04-30T06:50:57.324Z,9.40
2023-04-30T06:52:59.762Z,9.40
2023-04-30T06:55:02.567Z,9.40
2023-04-30T06:57:08.178Z,9.40
2023-04-30T06:59:10.886Z,9.50
2023-04-30T07:01:13.910Z,9.50
2023-04-30T07:03:16.495Z,9.60
2023-04-30T07:05:19.338Z,10.30
2023-04-30T07:07:23.458Z,9.50
2023-04-30T07:09:26.342Z,9.80
2023-04-30T07:11:28.903Z,9.60
2023-04-30T07:13:34.206Z,10.30
2023-04-30T07:15:37.882Z,10.00
2023-04-30T07:17:42.170Z,10.10
2023-04-30T07:19:44.804Z,10.20
2023-04-30T07:21:47.263Z,10.30
2023-04-30T07:23:51.734Z,10.40
2023-04-30T07:26:01.336Z,10.60
2023-04-30T07:28:03.943Z,10.70
2023-04-30T07:30:10.890Z,10.80
2023-04-30T07:32:13.690Z,10.80
2023-04-30T07:34:16.149Z,10.90
2023-04-30T07:36:18.710Z,10.90
2023-04-30T07:38:23.663Z,10.90
2023-04-30T07:40:35.346Z,11.30
2023-04-30T07:42:38.813Z,10.80
2023-04-30T07:44:44.844Z,10.90
2023-04-30T07:46:50.199Z,11.30
2023-04-30T07:48:52.861Z,10.80
2023-04-30T07:50:55.540Z,10.90
2023-04-30T07:52:58.191Z,11.00
2023-04-30T07:55:00.766Z,11.00
2023-04-30T07:57:03.949Z,11.00
2023-04-30T07:59:06.512Z,11.10
2023-04-30T08:01:09.119Z,11.10
2023-04-30T08:03:14.720Z,11.20
2023-04-30T08:05:17.649Z,11.70
2023-04-30T08:07:22.526Z,11.40
2023-04-30T08:09:25.081Z,11.50
2023-04-30T08:11:27.666Z,11.60
2023-04-30T08:13:31.111Z,11.60
2023-04-30T08:15:34.343Z,11.70
2023-04-30T08:17:37.728Z,11.70
2023-04-30T08:19:43.133Z,11.80
2023-04-30T08:21:45.882Z,11.80
2023-04-30T08:23:48.377Z,11.80
2023-04-30T08:25:51.927Z,11.80
2023-04-30T08:27:54.558Z,12.00
2023-04-30T08:30:02.628Z,11.90
2023-04-30T08:32:06.087Z,12.00
2023-04-30T08:34:11.975Z,12.10
2023-04-30T08:36:17.032Z,12.10
2023-04-30T08:38:19.638Z,12.20
2023-04-30T08:40:25.442Z,12.70
2023-04-30T08:42:43.478Z,12.30
2023-04-30T08:44:46.894Z,12.30
2023-04-30T08:46:53.163Z,12.40
2023-04-30T08:48:57.104Z,12.50
2023-04-30T08:51:01.389Z,12.40
2023-04-30T08:53:08.766Z,12.40
2023-04-30T08:55:11.735Z,12.90
2023-04-30T08:57:14.629Z,12.50
2023-04-30T08:59:17.248Z,12.50
2023-04-30T09:01:20.996Z,12.40
2023-04-30T09:03:24.025Z,12.40
2023-04-30T09:05:26.519Z,12.50
2023-04-30T09:07:33.871Z,12.50
2023-04-30T09:09:41.562Z,12.60
2023-04-30T09:11:44.181Z,12.70
2023-04-30T09:13:46.851Z,12.80
2023-04-30T09:15:52.646Z,12.90
2023-04-30T09:18:10.139Z,12.90
2023-04-30T09:20:14.383Z,12.90
2023-04-30T09:22:21.310Z,12.90
2023-04-30T09:24:24.496Z,13.00
2023-04-30T09:26:32.603Z,13.00
2023-04-30T09:28:37.938Z,13.10
2023-04-30T09:30:41.083Z,13.20
2023-04-30T09:32:56.555Z,13.30
2023-04-30T09:34:59.543Z,13.40
2023-04-30T09:37:02.222Z,13.60
2023-04-30T09:39:10.278Z,13.60
2023-04-30T09:41:23.784Z,13.70
2023-04-30T09:43:29.583Z,13.70
2023-04-30T09:45:42.661Z,13.70
2023-04-30T09:47:45.612Z,13.90
2023-04-30T09:49:55.264Z,14.10
2023-04-30T09:52:01.590Z,14.10
2023-04-30T09:54:06.769Z,14.10
2023-04-30T09:56:12.156Z,14.10
2023-04-30T09:58:16.874Z,14.00
2023-04-30T10:00:22.890Z,14.00
2023-04-30T10:02:26.666Z,14.10
2023-04-30T10:04:32.361Z,14.10
2023-04-30T10:06:35.977Z,14.20
2023-04-30T10:08:42.484Z,14.30
2023-04-30T10:10:50.592Z,14.30
2023-04-30T10:13:00.656Z,14.30
2023-04-30T10:15:06.904Z,14.30
2023-04-30T10:17:16.979Z,14.30
2023-04-30T10:19:24.123Z,14.40
2023-04-30T10:21:28.249Z,14.50
2023-04-30T10:23:30.682Z,14.70
2023-04-30T10:25:35.890Z,14.80
2023-04-30T10:27:39.369Z,14.90
2023-04-30T10:29:44.600Z,15.00
2023-04-30T10:31:48.932Z,15.10
2023-04-30T10:34:05.183Z,15.20
2023-04-30T10:36:12.097Z,15.30
2023-04-30T10:38:20.215Z,15.30
2023-04-30T10:40:22.662Z,15.40
2023-04-30T10:42:25.218Z,15.50
2023-04-30T10:44:27.803Z,15.60
2023-04-30T10:46:30.482Z,15.60
2023-04-30T10:48:35.819Z,15.70
2023-04-30T10:50:46.246Z,15.80
2023-04-30T10:53:03.258Z,15.80
2023-04-30T10:55:07.638Z,15.90
2023-04-30T10:57:12.799Z,16.00
2023-04-30T10:59:15.450Z,15.90
2023-04-30T11:01:18.014Z,15.90
2023-04-30T11:03:23.145Z,15.80
2023-04-30T11:05:36.837Z,15.70
2023-04-30T11:07:58.442Z,15.60
2023-04-30T11:10:02.574Z,15.60
2023-04-30T11:12:14.233Z,15.60
2023-04-30T11:14:23.219Z,15.80
2023-04-30T11:16:29.749Z,15.80
2023-04-30T11:18:35.117Z,15.90
2023-04-30T11:20:44.453Z,15.90
2023-04-30T11:22:47.164Z,16.00
2023-04-30T11:25:06.125Z,16.10
2023-04-30T11:27:13.211Z,16.30
2023-04-30T11:29:16.964Z,16.40
2023-04-30T11:31:20.110Z,16.30
2023-04-30T11:33:23.997Z,16.40
2023-04-30T11:35:28.815Z,16.50
2023-04-30T11:37:33.228Z,16.60
2023-04-30T11:39:37.168Z,16.60
2023-04-30T11:41:44.334Z,16.60
2023-04-30T11:43:46.888Z,16.70
2023-04-30T11:46:05.844Z,16.70
2023-04-30T11:48:16.297Z,16.60
2023-04-30T11:50:22.359Z,16.70
2023-04-30T11:52:26.984Z,16.70
2023-04-30T11:54:32.540Z,16.80
2023-04-30T11:56:46.144Z,16.80
2023-04-30T11:58:52.442Z,16.90
2023-04-30T12:00:59.897Z,17.00
2023-04-30T12:03:05.857Z,17.00
2023-04-30T12:05:15.815Z,17.10
2023-04-30T12:07:19.515Z,17.20
2023-04-30T12:09:23.101Z,17.20
2023-04-30T12:11:27.426Z,17.00
2023-04-30T12:13:34.381Z,16.90
2023-04-30T12:15:39.417Z,17.00
2023-04-30T12:17:42.155Z,17.20
2023-04-30T12:19:44.780Z,17.30
2023-04-30T12:21:49.503Z,17.50
2023-04-30T12:23:53.768Z,17.60
2023-04-30T12:26:05.458Z,17.60
2023-04-30T12:28:08.409Z,17.50
2023-04-30T12:30:15.204Z,17.60
2023-04-30T12:32:19.560Z,17.60
2023-04-30T12:34:22.289Z,17.70
2023-04-30T12:36:31.872Z,17.80
2023-04-30T12:38:37.548Z,17.80
2023-04-30T12:40:41.017Z,17.80
2023-04-30T12:42:45.056Z,17.70
2023-04-30T12:44:50.170Z,17.70
2023-04-30T12:47:01.126Z,17.80
2023-04-30T12:49:03.707Z,17.80
2023-04-30T12:51:07.013Z,17.90
2023-04-30T12:53:09.886Z,18.00
2023-04-30T12:55:16.315Z,18.10
2023-04-30T12:57:18.942Z,18.20
2023-04-30T12:59:27.688Z,18.20
2023-04-30T13:01:30.465Z,18.20
2023-04-30T13:03:35.685Z,18.20
2023-04-30T13:05:38.503Z,18.20
2023-04-30T13:07:41.098Z,18.20
2023-04-30T13:09:43.676Z,18.30
2023-04-30T13:11:46.142Z,18.20
2023-04-30T13:13:48.761Z,18.30
2023-04-30T13:15:51.531Z,18.20
2023-04-30T13:17:54.308Z,18.20
2023-04-30T13:19:59.424Z,18.30
2023-04-30T13:22:02.818Z,18.30
2023-04-30T13:24:06.395Z,18.00
2023-04-30T13:26:09.155Z,17.60
2023-04-30T13:28:11.731Z,17.60
2023-04-30T13:30:14.814Z,17.70
2023-04-30T13:32:17.484Z,17.80
2023-04-30T13:34:19.946Z,17.90
2023-04-30T13:36:25.278Z,18.10
2023-04-30T13:38:27.760Z,18.30
2023-04-30T13:40:30.432Z,18.40
2023-04-30T13:42:33.730Z,18.50
2023-04-30T13:44:36.898Z,18.50
2023-04-30T13:46:39.605Z,18.50
2023-04-30T13:48:43.261Z,18.50
2023-04-30T13:50:46.071Z,18.60
2023-04-30T13:52:51.186Z,18.40
2023-04-30T13:54:53.709Z,18.40
2023-04-30T13:56:57.481Z,18.30
2023-04-30T13:59:00.823Z,18.20
2023-04-30T14:01:03.797Z,18.20
2023-04-30T14:03:08.063Z,18.20
2023-04-30T14:05:13.690Z,18.30
2023-04-30T14:07:19.083Z,18.20
2023-04-30T14:09:24.434Z,18.30
2023-04-30T14:11:27.822Z,18.40
2023-04-30T14:13:30.295Z,18.50
2023-04-30T14:15:33.182Z,18.40
2023-04-30T14:17:35.817Z,18.40
2023-04-30T14:19:38.537Z,18.40
2023-04-30T14:21:41.037Z,18.40
2023-04-30T14:23:47.729Z,18.40
2023-04-30T14:25:54.296Z,18.30
2023-04-30T14:27:56.948Z,18.20
2023-04-30T14:29:59.828Z,18.30
2023-04-30T14:32:02.433Z,18.20
2023-04-30T14:34:05.016Z,18.20
2023-04-30T14:36:08.511Z,18.20
2023-04-30T14:38:14.049Z,18.20
2023-04-30T14:40:16.477Z,18.20
2023-04-30T14:42:21.604Z,18.30
2023-04-30T14:44:25.726Z,18.30
2023-04-30T14:46:28.249Z,18.30
2023-04-30T14:48:30.785Z,18.20
2023-04-30T14:50:33.437Z,18.20
2023-04-30T14:52:35.949Z,18.10
2023-04-30T14:54:38.758Z,17.90
2023-04-30T14:56:41.703Z,18.00
2023-04-30T14:58:46.773Z,17.90
2023-04-30T15:00:49.432Z,17.80
2023-04-30T15:02:52.526Z,17.80
2023-04-30T15:04:55.110Z,17.80
2023-04-30T15:06:57.582Z,17.80
2023-04-30T15:09:00.400Z,17.80
2023-04-30T15:11:04.103Z,17.70
2023-04-30T15:13:06.597Z,17.70
2023-04-30T15:15:15.193Z,17.80
2023-04-30T15:17:18.890Z,17.80
2023-04-30T15:19:21.612Z,17.90
2023-04-30T15:21:24.299Z,17.90
2023-04-30T15:23:27.218Z,17.90
2023-04-30T15:25:31.732Z,17.90
2023-04-30T15:27:34.389Z,17.90
2023-04-30T15:29:37.477Z,17.90
2023-04-30T15:31:45.234Z,17.90
2023-04-30T15:33:47.755Z,17.90
2023-04-30T15:35:51.365Z,17.80
2023-04-30T15:37:53.934Z,17.80
2023-04-30T15:39:57.097Z,17.80
2023-04-30T15:41:59.881Z,17.80
2023-04-30T15:44:03.171Z,17.80
2023-04-30T15:46:06.309Z,17.80
2023-04-30T15:48:11.690Z,17.80
2023-04-30T15:50:14.270Z,17.90
2023-04-30T15:52:16.956Z,17.80
2023-04-30T15:54:19.572Z,17.90
2023-04-30T15:56:25.869Z,17.90
2023-04-30T15:58:28.318Z,17.90
2023-04-30T16:00:30.845Z,17.90
2023-04-30T16:02:33.391Z,17.80
2023-04-30T16:04:38.422Z,17.80
2023-04-30T16:06:40.966Z,17.80
2023-04-30T16:08:47.020Z,17.90
2023-04-30T16:10:49.556Z,17.90
2023-04-30T16:12:57.872Z,18.00
2023-04-30T16:15:00.427Z,18.10
2023-04-30T16:17:03.001Z,18.20
2023-04-30T16:19:07.755Z,18.40
2023-04-30T16:21:13.146Z,18.30
2023-04-30T16:23:18.690Z,18.30
2023-04-30T16:25:21.458Z,18.30
2023-04-30T16:27:25.813Z,18.30
2023-04-30T16:29:28.318Z,18.40
2023-04-30T16:31:31.210Z,18.30
2023-04-30T16:33:33.730Z,18.50
2023-04-30T16:35:36.209Z,18.60
2023-04-30T16:37:41.292Z,18.60
2023-04-30T16:39:43.840Z,18.70
2023-04-30T16:41:47.457Z,18.80
2023-04-30T16:43:50.065Z,18.90
2023-04-30T16:45:56.321Z,19.00
2023-04-30T16:47:59.166Z,19.10
2023-04-30T16:50:02.027Z,19.20
2023-04-30T16:52:04.699Z,19.30
2023-04-30T16:54:09.771Z,19.40
2023-04-30T16:56:12.235Z,19.60
2023-04-30T16:58:14.808Z,19.70
2023-04-30T17:00:17.864Z,19.60
2023-04-30T17:02:20.445Z,19.50
2023-04-30T17:04:23.042Z,19.40
2023-04-30T17:06:26.599Z,19.30
2023-04-30T17:08:31.106Z,19.30
2023-04-30T17:10:36.188Z,19.20
2023-04-30T17:12:39.261Z,19.10
2023-04-30T17:14:42.251Z,18.90
2023-04-30T17:16:45.245Z,18.70
2023-04-30T17:18:47.908Z,18.60
2023-04-30T17:20:50.574Z,18.30
2023-04-30T17:22:53.673Z,17.90
2023-04-30T17:24:57.691Z,17.60
2023-04-30T17:27:05.874Z,17.30
2023-04-30T17:29:09.087Z,17.10
2023-04-30T17:31:11.690Z,17.00
2023-04-30T17:33:14.226Z,16.90
2023-04-30T17:35:17.266Z,16.70
2023-04-30T17:37:19.887Z,16.50
2023-04-30T17:39:23.480Z,16.20
2023-04-30T17:41:26.645Z,16.00
2023-04-30T17:43:31.691Z,15.70
2023-04-30T17:45:34.356Z,15.70
2023-04-30T17:47:36.992Z,15.40
2023-04-30T17:49:39.714Z,15.20
2023-04-30T17:51:42.217Z,15.00
2023-04-30T17:53:44.770Z,14.80
2023-04-30T17:55:47.261Z,14.60
2023-04-30T17:57:49.657Z,14.40
2023-04-30T17:59:55.149Z,14.30
2023-04-30T18:01:58.077Z,14.40
2023-04-30T18:04:03.848Z,14.20
2023-04-30T18:06:07.570Z,14.10
2023-04-30T18:08:10.478Z,14.10
2023-04-30T18:10:13.156Z,14.40
2023-04-30T18:12:18.735Z,14.10
2023-04-30T18:14:23.718Z,14.00
2023-04-30T18:16:29.067Z,14.00
2023-04-30T18:18:31.633Z,13.90
2023-04-30T18:20:34.208Z,13.90
2023-04-30T18:22:43.574Z,13.90
2023-04-30T18:24:46.432Z,13.80
2023-04-30T18:26:48.881Z,13.80
2023-04-30T18:28:52.416Z,13.80
2023-04-30T18:30:57.171Z,14.00
2023-04-30T18:33:05.728Z,13.60
2023-04-30T18:35:09.263Z,13.40
2023-04-30T18:37:11.883Z,13.30
2023-04-30T18:39:14.973Z,13.20
2023-04-30T18:41:17.521Z,13.00
2023-04-30T18:43:20.153Z,12.80
2023-04-30T18:45:22.978Z,12.80
2023-04-30T18:47:25.993Z,12.70
2023-04-30T18:49:32.112Z,12.60
2023-04-30T18:51:34.692Z,12.50
2023-04-30T18:53:37.252Z,12.40
2023-04-30T18:55:43.521Z,12.40
2023-04-30T18:57:50.805Z,12.30
2023-04-30T18:59:53.824Z,12.30
2023-04-30T19:01:56.775Z,12.40
2023-04-30T19:04:00.825Z,12.10
2023-04-30T19:06:06.039Z,12.10
2023-04-30T19:08:12.501Z,12.00
2023-04-30T19:10:15.727Z,12.10
2023-04-30T19:12:18.294Z,11.90
2023-04-30T19:14:20.928Z,11.90
2023-04-30T19:16:23.522Z,11.90
2023-04-30T19:18:26.217Z,11.70
2023-04-30T19:20:28.893Z,11.70
2023-04-30T19:22:34.101Z,11.60
2023-04-30T19:24:36.935Z,11.60
2023-04-30T19:26:41.708Z,11.50
2023-04-30T19:28:44.547Z,11.40
2023-04-30T19:30:47.213Z,11.30
2023-04-30T19:32:50.842Z,11.30
2023-04-30T19:34:53.793Z,11.20
2023-04-30T19:36:56.330Z,11.20
2023-04-30T19:39:01.563Z,11.10
2023-04-30T19:41:04.359Z,11.10
2023-04-30T19:43:06.827Z,11.10
2023-04-30T19:45:11.286Z,11.00
2023-04-30T19:47:13.778Z,10.90
2023-04-30T19:49:16.352Z,10.90
2023-04-30T19:51:20.140Z,10.90
2023-04-30T19:53:25.632Z,10.90
2023-04-30T19:55:31.982Z,10.80
2023-04-30T19:57:36.138Z,10.70
2023-04-30T19:59:38.553Z,10.70
2023-04-30T20:01:42.658Z,10.60
2023-04-30T20:03:45.459Z,10.60
2023-04-30T20:05:48.423Z,10.60
2023-04-30T20:07:50.951Z,10.60
2023-04-30T20:09:53.742Z,10.50
2023-04-30T20:12:00.002Z,10.50
2023-04-30T20:14:02.598Z,10.50
2023-04-30T20:16:05.734Z,10.50
2023-04-30T20:18:08.343Z,10.40
2023-04-30T20:20:12.676Z,10.40
2023-04-30T20:22:15.218Z,10.40
2023-04-30T20:24:17.844Z,10.50
2023-04-30T20:26:21.644Z,10.40
2023-04-30T20:28:27.142Z,10.30
2023-04-30T20:30:29.680Z,10.30
2023-04-30T20:32:32.301Z,10.30
2023-04-30T20:34:38.713Z,10.20
2023-04-30T20:36:41.204Z,10.20
2023-04-30T20:38:43.917Z,10.10
2023-04-30T20:40:46.542Z,10.00
2023-04-30T20:42:48.989Z,10.00
2023-04-30T20:44:54.761Z,9.90
2023-04-30T20:46:57.254Z,9.90
2023-04-30T20:49:04.423Z,9.80
2023-04-30T20:51:07.059Z,10.00
2023-04-30T20:53:11.177Z,9.70
2023-04-30T20:55:13.783Z,9.70
2023-04-30T20:57:19.203Z,9.60
2023-04-30T20:59:21.690Z,9.60
2023-04-30T21:01:29.984Z,9.50
2023-04-30T21:03:32.745Z,9.60
2023-04-30T21:05:35.335Z,9.50
2023-04-30T21:07:37.992Z,9.60
2023-04-30T21:09:41.182Z,9.50
2023-04-30T21:11:43.720Z,9.50
2023-04-30T21:13:46.207Z,9.40
2023-04-30T21:15:49.062Z,9.40
2023-04-30T21:17:54.274Z,9.40
2023-04-30T21:19:57.555Z,9.30
2023-04-30T21:22:00.237Z,9.30
2023-04-30T21:24:02.804Z,9.30
2023-04-30T21:26:05.360Z,9.30
2023-04-30T21:28:07.917Z,9.20
2023-04-30T21:30:10.686Z,9.20
2023-04-30T21:32:13.359Z,9.20
2023-04-30T21:34:18.570Z,9.10
2023-04-30T21:36:22.231Z,9.10
2023-04-30T21:38:24.803Z,9.10
2023-04-30T21:40:27.363Z,9.00
2023-04-30T21:42:30.312Z,9.00
2023-04-30T21:44:33.948Z,9.00
2023-04-30T21:46:37.764Z,8.90
2023-04-30T21:48:40.703Z,8.90
2023-04-30T21:50:47.851Z,9.00
2023-04-30T21:52:52.174Z,8.80
2023-04-30T21:54:54.723Z,8.80
2023-04-30T21:56:57.168Z,8.80
2023-04-30T21:58:59.696Z,8.80
2023-04-30T22:01:04.529Z,8.70
2023-04-30T22:03:07.215Z,8.70
2023-04-30T22:05:10.833Z,8.70
2023-04-30T22:07:16.051Z,8.70
2023-04-30T22:09:18.754Z,8.60
2023-04-30T22:11:21.389Z,8.60
2023-04-30T22:13:24.017Z,8.60
2023-04-30T22:15:31.619Z,8.60
2023-04-30T22:17:43.649Z,8.10
2023-04-30T22:19:46.164Z,8.50
2023-04-30T22:21:48.596Z,8.50
2023-04-30T22:23:53.679Z,8.50
2023-04-30T22:25:56.151Z,8.50
2023-04-30T22:27:58.597Z,8.50
2023-04-30T22:30:01.016Z,8.50
2023-04-30T22:32:04.355Z,8.40
2023-04-30T22:34:09.489Z,8.40
2023-04-30T22:36:11.993Z,8.40
2023-04-30T22:38:16.067Z,8.40
2023-04-30T22:40:21.301Z,8.30
2023-04-30T22:42:23.930Z,8.30
2023-04-30T22:44:26.786Z,8.30
2023-04-30T22:46:30.214Z,8.20
2023-04-30T22:48:34.506Z,8.30
2023-04-30T22:50:36.852Z,8.20
2023-04-30T22:52:39.532Z,8.20
2023-04-30T22:54:42.763Z,8.20
2023-04-30T22:56:47.920Z,8.20
2023-04-30T22:58:50.356Z,8.10
2023-04-30T23:00:52.860Z,8.10
2023-04-30T23:02:55.579Z,8.10
2023-04-30T23:04:58.119Z,8.00
2023-04-30T23:07:00.500Z,8.00
2023-04-30T23:09:02.913Z,8.00
2023-04-30T23:11:05.901Z,8.00
2023-04-30T23:13:10.992Z,7.90
2023-04-30T23:15:13.654Z,7.80
2023-04-30T23:17:16.150Z,7.80
2023-04-30T23:19:18.548Z,7.70
2023-04-30T23:21:22.080Z,7.70
2023-04-30T23:23:24.581Z,7.70
2023-04-30T23:25:27.081Z,7.70
2023-04-30T23:27:29.961Z,7.70
2023-04-30T23:29:36.290Z,7.90
2023-04-30T23:31:39.106Z,7.70
2023-04-30T23:33:41.520Z,7.80
2023-04-30T23:35:44.023Z,7.70
2023-04-30T23:37:48.457Z,7.70
2023-04-30T23:39:51.833Z,7.60
2023-04-30T23:41:54.347Z,7.60
2023-04-30T23:43:56.821Z,7.60
2023-04-30T23:46:02.037Z,7.50
2023-04-30T23:48:05.085Z,7.50
2023-04-30T23:50:09.207Z,7.50
2023-04-30T23:52:12.793Z,7.50
2023-04-30T23:54:15.929Z,7.50
2023-04-30T23:56:18.402Z,7.50
2023-04-30T23:58:20.970Z,7.50
